Time;durP1;ratioP1;P1;durP2;ratioP2;P2;SDS_P1;SDS_P2;PMS_P1;PMS_P2;Temp;Humidity;BMP_temperature;BMP_pressure;BME280_temperature;BME280_humidity;BME280_pressure;Samples;Min_cycle;Max_cycle;Signal;HPM_P1;HPM_P2
2022/01/01 00:01:36;;;;;;;56.35;30.52;;;11.80;99.90;;;;;;4971109;28;20031;-65
2022/01/01 00:04:01;;;;;;;60.00;31.48;;;11.90;99.90;;;;;;4969891;28;20046;-65
2022/01/01 00:06:27;;;;;;;57.03;30.35;;;12.40;99.90;;;;;;4973686;28;20384;-65
2022/01/01 00:08:52;;;;;;;56.38;31.95;;;11.80;99.90;;;;;;4971084;28;20039;-65
2022/01/01 00:11:18;;;;;;;53.80;31.13;;;11.90;99.90;;;;;;4972327;28;20356;-64
2022/01/01 00:13:43;;;;;;;59.50;32.25;;;11.90;99.90;;;;;;4966570;28;20039;-65
2022/01/01 00:16:09;;;;;;;65.68;34.13;;;11.80;99.90;;;;;;4968992;28;20041;-64
2022/01/01 00:18:35;;;;;;;69.50;34.88;;;11.90;99.90;;;;;;4969785;28;20030;-65
2022/01/01 00:21:00;;;;;;;71.03;35.92;;;11.80;99.90;;;;;;4972990;28;20473;-64
2022/01/01 00:23:26;;;;;;;71.90;36.42;;;11.80;99.90;;;;;;4969704;28;20088;-64
2022/01/01 00:25:51;;;;;;;75.03;36.10;;;11.70;99.90;;;;;;4983759;28;20406;-67
2022/01/01 00:28:17;;;;;;;71.40;34.70;;;11.70;99.90;;;;;;4972327;28;20738;-67
2022/01/01 00:30:42;;;;;;;76.65;36.13;;;11.80;99.90;;;;;;4972824;28;20461;-67
2022/01/01 00:33:08;;;;;;;66.88;33.78;;;11.70;99.90;;;;;;4968794;28;20042;-66
2022/01/01 00:35:33;;;;;;;67.85;31.15;;;11.70;99.90;;;;;;4972818;28;20048;-67
2022/01/01 00:37:58;;;;;;;62.63;31.00;;;11.70;99.90;;;;;;4967820;28;20041;-67
2022/01/01 00:40:24;;;;;;;56.45;29.27;;;11.70;99.90;;;;;;4974097;28;20182;-67
2022/01/01 00:42:49;;;;;;;56.10;27.67;;;11.70;99.90;;;;;;4965531;28;20088;-67
2022/01/01 00:45:15;;;;;;;50.85;26.05;;;10.40;99.90;;;;;;4968481;28;20043;-67
2022/01/01 00:47:40;;;;;;;48.90;25.60;;;12.00;99.90;;;;;;4976830;28;20169;-68
2022/01/01 00:50:06;;;;;;;45.50;23.40;;;11.70;99.90;;;;;;4974608;28;20037;-65
2022/01/01 00:52:31;;;;;;;47.72;25.15;;;12.00;99.90;;;;;;4975467;28;20125;-65
2022/01/01 00:54:57;;;;;;;48.15;23.35;;;11.70;99.90;;;;;;4976978;28;20041;-65
2022/01/01 00:57:22;;;;;;;42.53;23.33;;;12.50;99.90;;;;;;4971980;28;20077;-65
2022/01/01 00:59:48;;;;;;;49.58;25.52;;;11.70;99.90;;;;;;4974900;28;20037;-66
2022/01/01 01:02:13;;;;;;;49.53;25.98;;;11.70;99.90;;;;;;4976547;28;20793;-66
2022/01/01 01:04:39;;;;;;;58.95;26.60;;;11.70;99.90;;;;;;4976938;28;20030;-65
2022/01/01 01:07:04;;;;;;;53.92;25.33;;;11.70;99.90;;;;;;4974168;28;20114;-66
2022/01/01 01:09:30;;;;;;;55.38;25.90;;;11.70;99.90;;;;;;4974615;28;20026;-66
2022/01/01 01:11:56;;;;;;;48.45;26.05;;;11.70;99.90;;;;;;4986024;28;20034;-66
2022/01/01 01:14:23;;;;;;;59.22;26.92;;;13.40;99.90;;;;;;4971017;28;20043;-65
2022/01/01 01:16:49;;;;;;;50.70;25.40;;;11.70;99.90;;;;;;4975954;28;21173;-65
2022/01/01 01:19:14;;;;;;;57.72;27.08;;;11.60;99.90;;;;;;4974069;28;20039;-65
2022/01/01 01:21:40;;;;;;;54.45;26.05;;;11.70;99.90;;;;;;4972916;28;20026;-66
2022/01/01 01:24:05;;;;;;;52.95;25.45;;;11.70;99.90;;;;;;4973183;28;20043;-65
2022/01/01 01:26:31;;;;;;;49.47;25.08;;;11.10;99.90;;;;;;4970769;28;20043;-64
2022/01/01 01:28:57;;;;;;;48.35;23.92;;;11.70;99.90;;;;;;4972271;28;20130;-65
2022/01/01 01:31:24;;;;;;;52.22;25.35;;;12.20;99.90;;;;;;4976562;28;20035;-65
2022/01/01 01:33:50;;;;;;;60.95;26.08;;;11.30;99.90;;;;;;4986794;28;20049;-65
2022/01/01 01:36:15;;;;;;;48.25;23.75;;;11.90;99.90;;;;;;4978496;28;20038;-65
2022/01/01 01:38:41;;;;;;;53.58;24.45;;;12.10;99.90;;;;;;4967573;28;20039;-65
2022/01/01 01:41:06;;;;;;;53.92;23.98;;;11.70;99.90;;;;;;4973206;28;20041;-65
2022/01/01 01:43:32;;;;;;;52.15;24.92;;;11.80;99.90;;;;;;4977480;28;20066;-65
2022/01/01 01:46:02;;;;;;;45.22;22.90;;;11.70;99.90;;;;;;4972585;28;20149;-65
2022/01/01 01:48:28;;;;;;;46.92;22.58;;;11.70;99.90;;;;;;4975964;28;20044;-65
2022/01/01 01:50:53;;;;;;;50.20;24.70;;;11.70;99.90;;;;;;4977491;28;20031;-66
2022/01/01 01:53:19;;;;;;;45.72;22.73;;;11.70;99.90;;;;;;4972468;28;20057;-65
2022/01/01 01:55:44;;;;;;;43.50;22.83;;;11.70;99.90;;;;;;4972392;28;20027;-65
2022/01/01 01:58:10;;;;;;;49.75;24.33;;;11.70;99.90;;;;;;4994106;28;20812;-66
2022/01/01 02:03:11;;;;;;;47.30;22.80;;;11.70;99.90;;;;;;4988689;28;20907;-65
2022/01/01 02:05:37;;;;;;;50.42;22.67;;;11.10;99.90;;;;;;4975848;28;20036;-66
2022/01/01 02:08:02;;;;;;;48.42;23.95;;;11.70;99.90;;;;;;4967010;28;20093;-65
2022/01/01 02:10:27;;;;;;;58.47;25.23;;;13.10;99.90;;;;;;4971718;28;20031;-65
2022/01/01 02:12:55;;;;;;;50.28;24.50;;;11.70;99.90;;;;;;4974655;28;20092;-65
2022/01/01 02:15:27;;;;;;;46.20;22.58;;;11.70;99.90;;;;;;4972032;28;20426;-65
2022/01/01 02:17:53;;;;;;;46.28;21.83;;;11.70;99.90;;;;;;4972834;28;20042;-65
2022/01/01 02:20:20;;;;;;;40.80;20.13;;;11.70;99.90;;;;;;4972559;28;20041;-65
2022/01/01 02:22:50;;;;;;;36.97;20.02;;;12.40;99.90;;;;;;4970149;28;20408;-65
2022/01/01 02:25:16;;;;;;;35.25;18.85;;;11.70;99.90;;;;;;4975454;28;20042;-65
2022/01/01 02:27:41;;;;;;;40.85;19.25;;;11.70;99.90;;;;;;4979386;28;20034;-66
2022/01/01 02:30:07;;;;;;;30.90;18.58;;;11.70;99.90;;;;;;4974168;28;20039;-65
2022/01/01 02:32:32;;;;;;;37.88;18.35;;;11.70;99.90;;;;;;4974875;28;20026;-65
2022/01/01 02:34:58;;;;;;;33.17;18.35;;;11.70;99.90;;;;;;4987182;28;20105;-66
2022/01/01 02:37:23;;;;;;;30.98;17.67;;;12.10;99.90;;;;;;4972370;28;20034;-65
2022/01/01 02:39:49;;;;;;;31.00;16.95;;;11.80;99.90;;;;;;4972673;28;20101;-65
2022/01/01 02:42:18;;;;;;;33.90;16.15;;;11.80;99.90;;;;;;4977153;28;20034;-66
2022/01/01 02:44:43;;;;;;;30.85;16.60;;;11.80;99.90;;;;;;4972227;28;20043;-65
2022/01/01 02:47:09;;;;;;;31.08;18.17;;;11.80;99.90;;;;;;4974322;28;20033;-65
2022/01/01 02:49:34;;;;;;;48.00;18.35;;;11.80;99.90;;;;;;4969510;28;20069;-66
2022/01/01 02:52:00;;;;;;;34.00;16.70;;;11.80;99.90;;;;;;4971912;28;20039;-65
2022/01/01 02:54:25;;;;;;;31.83;16.83;;;11.80;99.90;;;;;;4989473;28;20042;-66
2022/01/01 02:56:51;;;;;;;33.20;16.88;;;11.80;99.90;;;;;;4975356;28;20030;-66
2022/01/01 02:59:16;;;;;;;36.42;16.45;;;11.60;99.90;;;;;;4972393;28;20596;-66
2022/01/01 03:01:42;;;;;;;27.95;15.48;;;11.80;99.90;;;;;;4973362;28;20038;-66
2022/01/01 03:04:08;;;;;;;28.80;15.68;;;11.70;99.90;;;;;;4984223;28;20039;-66
2022/01/01 03:06:34;;;;;;;34.17;16.38;;;11.80;99.90;;;;;;4972854;28;20033;-66
2022/01/01 03:08:59;;;;;;;37.78;16.33;;;11.80;99.90;;;;;;4983382;28;20042;-66
2022/01/01 03:11:25;;;;;;;30.90;16.20;;;11.90;99.90;;;;;;4976149;28;20047;-66
2022/01/01 03:13:50;;;;;;;32.63;16.35;;;11.80;99.90;;;;;;4971384;28;20049;-66
2022/01/01 03:16:16;;;;;;;33.13;15.75;;;11.90;99.90;;;;;;4973474;28;20031;-68
2022/01/01 03:18:41;;;;;;;35.53;16.63;;;11.80;99.90;;;;;;4970301;28;20126;-67
2022/01/01 03:21:07;;;;;;;33.30;15.93;;;11.80;99.90;;;;;;4974640;28;20061;-67
2022/01/01 03:23:32;;;;;;;29.75;15.07;;;11.80;99.90;;;;;;4974689;28;20525;-67
2022/01/01 03:25:58;;;;;;;31.48;15.65;;;11.80;99.90;;;;;;4972685;28;20066;-68
2022/01/01 03:28:24;;;;;;;40.47;17.30;;;11.80;99.90;;;;;;4971575;28;20380;-67
2022/01/01 03:30:50;;;;;;;30.83;15.10;;;;;;;;;;4968696;28;20072;-68
2022/01/01 03:33:15;;;;;;;35.10;15.38;;;;;;;;;;4965744;28;20038;-68
2022/01/01 03:35:41;;;;;;;29.75;15.60;;;;;;;;;;4975745;28;20089;-67
2022/01/01 03:38:07;;;;;;;31.15;14.85;;;12.20;99.90;;;;;;4969896;28;20026;-67
2022/01/01 03:40:32;;;;;;;27.77;14.02;;;11.90;99.90;;;;;;4970177;28;20508;-67
2022/01/01 03:42:58;;;;;;;26.38;13.63;;;11.80;99.90;;;;;;4987462;28;20435;-67
2022/01/01 03:45:23;;;;;;;29.63;14.38;;;11.60;99.90;;;;;;4986133;28;20098;-67
2022/01/01 03:47:49;;;;;;;35.90;14.20;;;;;;;;;;4972601;28;20034;-67
2022/01/01 03:50:15;;;;;;;34.83;14.60;;;12.20;99.90;;;;;;4974119;28;20034;-67
2022/01/01 03:52:41;;;;;;;30.98;14.90;;;11.50;99.90;;;;;;4974771;28;20514;-67
2022/01/01 03:55:06;;;;;;;34.10;15.35;;;11.90;99.90;;;;;;4971481;28;20828;-67
2022/01/01 03:57:31;;;;;;;33.20;14.88;;;11.80;99.90;;;;;;4973659;28;20507;-67
2022/01/01 03:59:57;;;;;;;36.03;15.55;;;11.80;99.90;;;;;;4983978;28;20060;-67
2022/01/01 04:02:22;;;;;;;36.63;15.02;;;11.80;99.90;;;;;;4973059;28;20458;-67
2022/01/01 04:04:48;;;;;;;36.92;15.93;;;11.80;99.90;;;;;;4972689;28;20049;-67
2022/01/01 04:07:13;;;;;;;34.67;16.98;;;11.80;99.90;;;;;;4973233;28;20046;-67
2022/01/01 04:09:39;;;;;;;37.65;17.35;;;11.90;99.90;;;;;;4970655;28;20085;-67
2022/01/01 04:12:04;;;;;;;38.08;16.67;;;11.80;99.90;;;;;;4971048;28;20041;-68
2022/01/01 04:14:30;;;;;;;43.83;16.98;;;11.80;99.90;;;;;;4967170;28;20085;-68
2022/01/01 04:16:57;;;;;;;40.35;17.48;;;12.50;99.90;;;;;;4974039;28;20027;-68
2022/01/01 04:19:30;;;;;;;44.80;17.55;;;11.80;99.90;;;;;;4971608;28;20871;-68
2022/01/01 04:21:56;;;;;;;35.60;17.10;;;11.80;99.90;;;;;;4972143;28;20038;-68
2022/01/01 04:24:21;;;;;;;36.35;17.25;;;11.80;99.90;;;;;;4967895;28;20045;-68
2022/01/01 04:26:46;;;;;;;42.63;17.42;;;11.80;99.90;;;;;;4983442;28;20490;-68
2022/01/01 04:29:12;;;;;;;38.65;16.80;;;11.80;99.90;;;;;;4967368;28;20042;-69
2022/01/01 04:31:38;;;;;;;40.05;16.42;;;11.80;99.90;;;;;;4975102;28;20893;-68
2022/01/01 04:34:03;;;;;;;35.58;15.95;;;11.90;99.90;;;;;;4987343;28;20972;-69
2022/01/01 04:36:29;;;;;;;34.92;15.90;;;11.80;99.90;;;;;;4970748;28;20034;-68
2022/01/01 04:38:54;;;;;;;35.03;16.27;;;11.80;99.90;;;;;;4970543;28;20855;-68
2022/01/01 04:41:20;;;;;;;34.80;15.95;;;11.80;99.90;;;;;;4970466;28;20141;-68
2022/01/01 04:43:46;;;;;;;35.55;16.63;;;11.80;99.90;;;;;;4970720;28;20108;-68
2022/01/01 04:46:12;;;;;;;42.55;15.98;;;11.80;99.90;;;;;;4970429;28;20121;-68
2022/01/01 04:48:37;;;;;;;41.80;16.20;;;11.80;99.90;;;;;;4971612;28;20031;-68
2022/01/01 04:51:03;;;;;;;49.90;16.45;;;11.80;99.90;;;;;;4969720;28;20035;-68
2022/01/01 04:53:28;;;;;;;39.20;16.92;;;11.80;99.90;;;;;;4969302;28;20035;-68
2022/01/01 04:55:54;;;;;;;38.72;16.45;;;11.80;99.90;;;;;;4968088;28;20092;-68
2022/01/01 04:58:19;;;;;;;36.00;15.40;;;11.80;99.90;;;;;;4973019;28;20275;-68
2022/01/01 05:00:45;;;;;;;36.63;15.82;;;11.80;99.90;;;;;;4970046;28;20045;-68
2022/01/01 05:03:10;;;;;;;40.10;17.65;;;11.80;99.90;;;;;;4985581;28;20042;-68
2022/01/01 05:05:36;;;;;;;44.65;16.58;;;11.70;99.90;;;;;;4968712;28;20026;-68
2022/01/01 05:08:01;;;;;;;34.95;15.80;;;12.20;99.90;;;;;;4971713;28;20034;-67
2022/01/01 05:10:27;;;;;;;33.25;16.10;;;11.70;99.90;;;;;;4967991;28;20399;-68
2022/01/01 05:12:52;;;;;;;46.08;16.65;;;11.80;99.90;;;;;;4970561;28;20077;-69
2022/01/01 05:15:18;;;;;;;34.17;16.05;;;11.80;99.90;;;;;;4973167;28;20050;-68
2022/01/01 05:17:43;;;;;;;32.13;16.10;;;11.80;99.90;;;;;;4970070;28;20041;-68
2022/01/01 05:20:09;;;;;;;33.15;14.88;;;11.80;99.90;;;;;;4967122;28;20030;-68
2022/01/01 05:22:34;;;;;;;34.08;15.13;;;11.90;99.90;;;;;;4967982;28;20108;-68
2022/01/01 05:25:01;;;;;;;31.75;14.68;;;11.80;99.90;;;;;;4986135;28;20038;-68
2022/01/01 05:27:26;;;;;;;32.33;15.35;;;11.80;99.90;;;;;;4970606;28;20442;-68
2022/01/01 05:29:52;;;;;;;33.15;14.77;;;11.80;99.90;;;;;;4969167;28;20047;-68
2022/01/01 05:32:17;;;;;;;34.13;15.02;;;11.70;99.90;;;;;;4970790;28;20043;-68
2022/01/01 05:34:43;;;;;;;27.25;14.50;;;11.40;99.90;;;;;;4970891;28;20177;-68
2022/01/01 05:37:08;;;;;;;37.58;14.00;;;12.30;99.90;;;;;;4972919;28;20507;-68
2022/01/01 05:39:34;;;;;;;33.78;13.35;;;11.80;99.90;;;;;;4976063;28;20033;-68
2022/01/01 05:41:59;;;;;;;32.17;14.23;;;11.80;99.90;;;;;;4974397;28;20712;-68
2022/01/01 05:44:25;;;;;;;33.15;13.43;;;11.80;99.90;;;;;;4975332;28;20039;-68
2022/01/01 05:46:52;;;;;;;31.45;13.73;;;11.90;99.90;;;;;;4978472;28;20041;-67
2022/01/01 05:49:18;;;;;;;29.75;13.40;;;11.90;99.90;;;;;;4973342;28;20042;-68
2022/01/01 05:51:43;;;;;;;32.58;13.98;;;11.80;99.90;;;;;;4976022;28;20037;-68
2022/01/01 05:54:09;;;;;;;37.30;14.70;;;11.90;99.90;;;;;;4974595;28;20542;-69
2022/01/01 05:56:34;;;;;;;31.52;14.00;;;11.90;99.90;;;;;;4977796;28;20085;-68
2022/01/01 05:59:00;;;;;;;41.03;15.70;;;11.80;99.90;;;;;;4976197;28;20030;-68
2022/01/01 06:01:25;;;;;;;34.72;13.30;;;11.80;99.90;;;;;;4977844;28;20041;-68
2022/01/01 06:03:51;;;;;;;34.83;13.35;;;11.80;99.90;;;;;;4974804;28;20475;-68
2022/01/01 06:06:16;;;;;;;26.13;12.95;;;12.00;99.90;;;;;;4970839;28;20043;-68
2022/01/01 06:08:42;;;;;;;32.08;14.60;;;12.00;99.90;;;;;;4975513;28;20038;-68
2022/01/01 06:11:07;;;;;;;35.70;14.02;;;12.00;99.90;;;;;;4971316;28;20042;-68
2022/01/01 06:13:33;;;;;;;29.13;13.77;;;12.70;99.90;;;;;;4971560;28;20548;-68
2022/01/01 06:15:58;;;;;;;35.92;13.65;;;11.90;99.90;;;;;;4969543;28;20034;-68
2022/01/01 06:18:24;;;;;;;37.83;13.88;;;11.90;99.90;;;;;;4971608;28;20046;-68
2022/01/01 06:20:49;;;;;;;29.63;13.25;;;11.90;99.90;;;;;;4972252;28;20565;-69
2022/01/01 06:23:15;;;;;;;32.35;13.35;;;12.00;99.90;;;;;;4976309;28;20046;-69
2022/01/01 06:25:40;;;;;;;40.08;14.23;;;11.90;99.90;;;;;;4976988;28;20092;-68
2022/01/01 06:28:06;;;;;;;33.40;13.73;;;12.00;99.90;;;;;;4978031;28;20050;-68
2022/01/01 06:30:34;;;;;;;39.20;14.85;;;12.00;99.90;;;;;;4977554;28;20118;-68
2022/01/01 06:33:00;;;;;;;36.85;14.35;;;11.90;99.90;;;;;;4973760;28;20777;-68
2022/01/01 06:35:25;;;;;;;37.05;14.30;;;11.90;99.90;;;;;;4971860;28;20034;-68
2022/01/01 06:37:50;;;;;;;35.00;13.75;;;11.90;99.90;;;;;;4980099;28;20387;-68
2022/01/01 06:40:16;;;;;;;31.95;14.93;;;11.90;99.90;;;;;;4977771;28;20026;-68
2022/01/01 06:42:41;;;;;;;30.33;14.13;;;11.90;99.90;;;;;;4977310;28;20826;-68
2022/01/01 06:45:07;;;;;;;33.63;14.05;;;12.00;99.90;;;;;;4972252;28;20039;-68
2022/01/01 06:47:32;;;;;;;34.85;14.23;;;11.90;99.90;;;;;;4976696;28;20452;-68
2022/01/01 06:49:58;;;;;;;38.75;14.73;;;11.80;99.90;;;;;;4998538;28;20085;-68
2022/01/01 06:52:23;;;;;;;35.72;13.82;;;12.00;99.90;;;;;;4974053;28;20133;-68
2022/01/01 06:54:49;;;;;;;38.25;13.65;;;;;;;;;;4979338;28;20105;-68
2022/01/01 06:57:15;;;;;;;34.85;13.68;;;;;;;;;;4974691;28;20113;-68
2022/01/01 06:59:41;;;;;;;32.17;13.77;;;;;;;;;;4973413;28;20101;-68
2022/01/01 07:02:07;;;;;;;37.65;15.18;;;;;;;;;;4992325;28;20068;-68
2022/01/01 07:04:33;;;;;;;31.10;14.00;;;11.90;99.90;;;;;;4974443;28;20030;-69
2022/01/01 07:06:58;;;;;;;35.60;14.57;;;11.90;99.90;;;;;;4976461;28;20114;-68
2022/01/01 07:09:24;;;;;;;36.17;14.35;;;11.40;99.90;;;;;;4979188;28;20344;-68
2022/01/01 07:11:50;;;;;;;41.30;14.10;;;12.10;99.90;;;;;;4975886;28;20132;-68
2022/01/01 07:14:16;;;;;;;29.95;13.07;;;11.90;99.90;;;;;;4990498;28;20057;-68
2022/01/01 07:16:41;;;;;;;32.40;13.45;;;11.90;99.90;;;;;;4977305;28;20114;-68
2022/01/01 07:19:07;;;;;;;41.05;15.18;;;11.90;99.90;;;;;;4976741;28;20310;-68
2022/01/01 07:21:32;;;;;;;33.33;14.25;;;10.40;99.90;;;;;;4971331;28;20034;-69
2022/01/01 07:23:58;;;;;;;33.88;14.35;;;11.80;99.90;;;;;;4975849;28;20030;-68
2022/01/01 07:26:23;;;;;;;33.95;13.25;;;11.90;99.90;;;;;;4990037;28;20125;-68
2022/01/01 07:28:49;;;;;;;33.45;14.00;;;11.90;99.90;;;;;;4973691;28;20819;-69
2022/01/01 07:31:14;;;;;;;32.60;14.20;;;11.90;99.90;;;;;;4976453;28;20034;-68
2022/01/01 07:33:40;;;;;;;25.52;12.45;;;11.50;99.90;;;;;;4973600;28;20042;-69
2022/01/01 07:36:05;;;;;;;36.00;14.32;;;12.80;99.90;;;;;;4973585;28;20030;-69
2022/01/01 07:38:31;;;;;;;33.95;14.75;;;11.90;99.90;;;;;;4977542;28;20547;-69
2022/01/01 07:40:56;;;;;;;41.03;15.27;;;11.90;99.90;;;;;;4990589;28;20118;-69
2022/01/01 07:43:23;;;;;;;34.95;14.00;;;12.30;99.90;;;;;;4973946;28;20041;-69
2022/01/01 07:45:48;;;;;;;32.78;14.48;;;11.90;99.90;;;;;;4978575;28;20045;-68
2022/01/01 07:48:14;;;;;;;31.90;13.45;;;;;;;;;;4976214;28;20673;-68
2022/01/01 07:50:41;;;;;;;31.42;14.00;;;;;;;;;;4971941;28;20193;-68
2022/01/01 07:53:08;;;;;;;34.78;13.63;;;;;;;;;;4972845;28;20049;-68
2022/01/01 07:55:33;;;;;;;27.45;12.48;;;12.00;99.90;;;;;;4978436;28;20043;-68
2022/01/01 07:57:59;;;;;;;35.15;13.90;;;12.00;99.90;;;;;;4989008;28;20045;-68
2022/01/01 08:00:24;;;;;;;29.13;13.95;;;12.00;99.90;;;;;;4975052;28;20022;-69
2022/01/01 08:02:50;;;;;;;40.47;13.65;;;12.00;99.90;;;;;;4973163;28;20558;-69
2022/01/01 08:05:18;;;;;;;33.92;13.50;;;12.00;99.90;;;;;;4975744;28;20376;-69
2022/01/01 08:07:44;;;;;;;35.88;14.23;;;12.00;99.90;;;;;;4977451;28;20049;-68
2022/01/01 08:10:09;;;;;;;31.05;12.77;;;12.00;99.90;;;;;;4972039;28;20026;-68
2022/01/01 08:12:35;;;;;;;33.50;14.00;;;12.00;99.90;;;;;;4975061;28;20741;-68
2022/01/01 08:15:00;;;;;;;38.50;13.57;;;12.20;99.90;;;;;;4978735;28;20744;-68
2022/01/01 08:17:25;;;;;;;32.38;13.60;;;12.10;99.90;;;;;;4974361;28;20116;-68
2022/01/01 08:19:51;;;;;;;32.28;13.82;;;12.10;99.90;;;;;;4971055;28;20041;-68
2022/01/01 08:22:16;;;;;;;29.48;13.40;;;12.10;99.90;;;;;;4972531;28;20490;-68
2022/01/01 08:24:42;;;;;;;32.88;13.48;;;12.20;99.90;;;;;;4972364;28;20027;-68
2022/01/01 08:27:07;;;;;;;30.98;13.40;;;12.10;99.90;;;;;;4977884;28;20390;-68
2022/01/01 08:29:33;;;;;;;35.90;14.05;;;12.10;99.90;;;;;;4978161;28;20048;-68
2022/01/01 08:31:58;;;;;;;36.25;13.57;;;12.10;99.90;;;;;;4972315;28;20510;-68
2022/01/01 08:34:24;;;;;;;33.30;14.13;;;12.20;99.90;;;;;;4970589;28;20031;-69
2022/01/01 08:36:49;;;;;;;35.22;13.18;;;12.10;99.90;;;;;;4975917;28;20184;-68
2022/01/01 08:39:15;;;;;;;37.65;14.35;;;11.70;99.90;;;;;;4973037;28;20127;-68
2022/01/01 08:41:40;;;;;;;30.83;15.23;;;12.10;99.90;;;;;;4988675;28;20100;-68
2022/01/01 08:44:06;;;;;;;35.92;13.98;;;12.20;99.90;;;;;;4972996;28;20038;-69
2022/01/01 08:46:31;;;;;;;31.25;13.68;;;11.70;99.90;;;;;;4973447;28;20026;-68
2022/01/01 08:48:57;;;;;;;31.20;14.48;;;12.20;99.90;;;;;;4967548;28;20035;-69
2022/01/01 08:51:22;;;;;;;34.33;13.77;;;12.20;99.90;;;;;;4976892;28;20038;-69
2022/01/01 08:53:48;;;;;;;37.03;13.55;;;11.90;99.90;;;;;;4967697;28;20034;-68
2022/01/01 08:56:13;;;;;;;33.67;12.80;;;12.30;99.90;;;;;;4975936;28;20042;-68
2022/01/01 08:58:42;;;;;;;43.92;13.30;;;12.30;99.90;;;;;;4969713;28;20062;-68
2022/01/01 09:01:07;;;;;;;30.55;13.00;;;12.20;99.90;;;;;;4972031;28;20038;-68
2022/01/01 09:03:35;;;;;;;34.88;13.80;;;12.30;99.90;;;;;;4969917;28;20034;-68
2022/01/01 09:06:00;;;;;;;35.70;14.32;;;12.20;99.90;;;;;;4969435;28;20652;-68
2022/01/01 09:08:26;;;;;;;38.45;14.13;;;12.20;99.90;;;;;;4987462;28;20034;-68
2022/01/01 09:10:51;;;;;;;33.80;13.07;;;12.20;99.90;;;;;;4973109;28;20384;-68
2022/01/01 09:13:17;;;;;;;34.60;13.73;;;12.20;99.90;;;;;;4979903;28;20035;-68
2022/01/01 09:15:42;;;;;;;35.22;13.73;;;12.30;99.90;;;;;;4978243;28;20571;-68
2022/01/01 09:18:08;;;;;;;36.33;14.68;;;12.10;99.90;;;;;;4977255;28;20490;-68
2022/01/01 09:20:33;;;;;;;37.35;15.18;;;13.60;99.90;;;;;;4977965;28;20030;-68
2022/01/01 09:22:59;;;;;;;42.35;16.77;;;12.20;99.90;;;;;;4994748;28;20570;-68
2022/01/01 09:25:25;;;;;;;41.25;15.68;;;;;;;;;;4979858;28;20042;-68
2022/01/01 09:27:50;;;;;;;38.35;15.43;;;11.70;99.90;;;;;;4978300;28;20044;-68
2022/01/01 09:30:15;;;;;;;44.65;16.73;;;12.20;99.90;;;;;;4976860;28;20031;-68
2022/01/01 09:32:41;;;;;;;42.28;17.60;;;11.90;99.90;;;;;;4974526;28;20038;-68
2022/01/01 09:35:06;;;;;;;49.10;16.35;;;11.90;99.90;;;;;;4975723;28;20875;-68
2022/01/01 09:37:32;;;;;;;45.15;18.20;;;11.90;99.90;;;;;;4979747;28;20046;-68
2022/01/01 09:39:57;;;;;;;42.42;16.77;;;12.20;99.90;;;;;;4974845;28;20037;-68
2022/01/01 09:42:23;;;;;;;48.22;16.92;;;11.20;99.90;;;;;;4974209;28;20030;-68
2022/01/01 09:44:48;;;;;;;43.97;17.38;;;11.90;99.90;;;;;;4992722;28;20104;-68
2022/01/01 09:47:14;;;;;;;49.10;18.08;;;11.80;99.90;;;;;;4972642;28;20066;-68
2022/01/01 09:49:39;;;;;;;53.13;17.92;;;11.80;99.90;;;;;;4973853;28;20069;-68
2022/01/01 09:52:05;;;;;;;42.00;16.88;;;12.90;99.90;;;;;;4979953;28;20038;-68
2022/01/01 09:54:31;;;;;;;52.20;19.42;;;11.70;99.90;;;;;;4978349;28;20050;-68
2022/01/01 09:56:56;;;;;;;56.50;20.75;;;11.80;99.90;;;;;;4973350;28;20914;-68
2022/01/01 09:59:22;;;;;;;42.60;18.27;;;11.80;99.90;;;;;;4970223;28;20035;-68
2022/01/01 10:01:47;;;;;;;50.00;18.73;;;11.80;99.90;;;;;;4975636;28;20082;-68
2022/01/01 10:04:13;;;;;;;58.20;19.17;;;11.80;99.90;;;;;;4975926;28;20764;-68
2022/01/01 10:06:38;;;;;;;47.83;18.30;;;11.70;99.90;;;;;;4979585;28;20561;-68
2022/01/01 10:09:05;;;;;;;45.30;18.65;;;11.80;99.90;;;;;;4978606;28;20038;-68
2022/01/01 10:11:33;;;;;;;45.22;18.63;;;11.80;99.90;;;;;;4981856;28;20032;-68
2022/01/01 10:13:58;;;;;;;51.72;18.10;;;11.80;99.90;;;;;;4979037;28;20112;-68
2022/01/01 10:16:24;;;;;;;41.28;17.42;;;11.90;99.90;;;;;;4979396;28;20421;-68
2022/01/01 10:18:50;;;;;;;43.72;15.65;;;11.90;99.90;;;;;;4981157;28;20030;-68
2022/01/01 10:21:16;;;;;;;44.33;14.95;;;12.50;99.90;;;;;;4980429;28;20041;-68
2022/01/01 10:23:41;;;;;;;49.67;16.70;;;12.10;99.90;;;;;;4979505;28;20038;-68
2022/01/01 10:28:51;;;;;;;46.53;15.32;;;12.20;99.90;;;;;;4975532;28;20414;-68
2022/01/01 10:31:17;;;;;;;37.65;17.63;;;12.40;99.90;;;;;;4989253;28;20041;-68
2022/01/01 10:33:42;;;;;;;38.53;14.95;;;12.30;99.90;;;;;;4975088;28;20114;-68
2022/01/01 10:36:10;;;;;;;38.75;15.80;;;12.40;99.90;;;;;;4976364;28;20035;-68
2022/01/01 10:38:35;;;;;;;41.88;14.95;;;12.40;99.90;;;;;;4976439;28;20474;-68
2022/01/01 10:41:01;;;;;;;34.15;13.40;;;12.50;99.90;;;;;;4975857;28;20126;-68
2022/01/01 10:43:26;;;;;;;39.35;14.15;;;12.60;99.90;;;;;;4973025;28;20758;-66
2022/01/01 10:45:52;;;;;;;33.20;13.88;;;12.50;99.90;;;;;;4971789;28;20772;-66
2022/01/01 10:48:20;;;;;;;34.22;13.30;;;12.60;99.90;;;;;;4990618;28;20050;-65
2022/01/01 10:50:46;;;;;;;46.05;13.75;;;12.70;99.90;;;;;;4990980;28;20101;-66
2022/01/01 10:53:11;;;;;;;43.13;15.30;;;13.00;99.90;;;;;;4974352;28;20486;-66
2022/01/01 10:55:37;;;;;;;61.63;29.02;;;12.70;99.90;;;;;;4977201;28;20125;-65
2022/01/01 10:58:03;;;;;;;38.38;14.93;;;12.70;99.90;;;;;;4977690;28;20053;-66
2022/01/01 11:00:28;;;;;;;36.08;14.30;;;12.80;99.90;;;;;;4973458;28;20034;-66
2022/01/01 11:02:54;;;;;;;34.47;14.07;;;12.80;99.90;;;;;;4977474;28;20513;-65
2022/01/01 11:05:19;;;;;;;41.45;17.33;;;13.10;99.90;;;;;;4977628;28;20035;-66
2022/01/01 11:07:45;;;;;;;37.35;14.02;;;13.90;99.90;;;;;;4974883;28;20034;-66
2022/01/01 11:10:10;;;;;;;42.45;15.30;;;12.80;99.90;;;;;;4975682;28;21003;-66
2022/01/01 11:12:36;;;;;;;38.05;13.20;;;12.70;99.90;;;;;;4975653;28;20038;-66
2022/01/01 11:15:03;;;;;;;39.53;14.63;;;12.60;99.90;;;;;;4974644;28;20064;-66
2022/01/01 11:17:29;;;;;;;35.05;14.52;;;12.60;99.90;;;;;;4972706;28;20038;-67
2022/01/01 11:19:55;;;;;;;40.13;14.07;;;12.60;99.90;;;;;;4977389;28;20092;-66
2022/01/01 11:22:20;;;;;;;35.03;14.50;;;12.70;99.90;;;;;;4972442;28;20035;-66
2022/01/01 11:24:46;;;;;;;43.30;15.57;;;12.90;99.90;;;;;;4990552;28;20121;-66
2022/01/01 11:27:11;;;;;;;36.97;13.38;;;12.90;99.90;;;;;;4971948;28;20030;-67
2022/01/01 11:29:38;;;;;;;40.67;14.75;;;12.70;99.90;;;;;;4976786;28;20046;-66
2022/01/01 11:32:03;;;;;;;33.53;14.02;;;12.70;99.90;;;;;;4973093;28;20055;-66
2022/01/01 11:34:30;;;;;;;37.63;14.05;;;12.60;99.90;;;;;;4977734;28;20030;-67
2022/01/01 11:36:55;;;;;;;34.25;14.27;;;12.70;99.90;;;;;;4973036;28;20041;-67
2022/01/01 11:39:23;;;;;;;31.35;13.30;;;12.70;99.90;;;;;;4988354;28;20030;-65
2022/01/01 11:41:49;;;;;;;31.63;13.85;;;12.80;99.90;;;;;;4976249;28;20039;-66
2022/01/01 11:44:14;;;;;;;33.53;13.90;;;12.90;99.90;;;;;;4974386;28;20045;-66
2022/01/01 11:46:40;;;;;;;41.60;15.93;;;12.80;99.90;;;;;;4961501;28;20041;-66
2022/01/01 11:49:05;;;;;;;37.17;14.07;;;13.20;99.90;;;;;;4975813;28;20466;-66
2022/01/01 11:51:35;;;;;;;42.75;15.20;;;12.80;99.90;;;;;;4974527;28;20034;-68
2022/01/01 11:54:00;;;;;;;40.05;14.20;;;12.80;99.90;;;;;;4987439;28;20037;-68
2022/01/01 11:56:27;;;;;;;42.00;15.38;;;12.80;99.90;;;;;;4978627;28;20390;-68
2022/01/01 11:58:52;;;;;;;47.08;18.98;;;12.80;99.90;;;;;;4975371;28;20486;-68
2022/01/01 12:01:18;;;;;;;40.00;14.40;;;12.70;99.90;;;;;;4970568;28;20030;-68
2022/01/01 12:03:43;;;;;;;40.67;13.75;;;12.70;99.90;;;;;;4955119;28;20034;-69
2022/01/01 12:06:09;;;;;;;33.83;15.25;;;12.80;99.90;;;;;;4976056;28;20506;-69
2022/01/01 12:08:34;;;;;;;37.90;13.95;;;12.70;99.90;;;;;;4972088;28;20031;-69
2022/01/01 12:11:00;;;;;;;30.38;14.55;;;12.80;99.90;;;;;;4967905;28;20853;-70
2022/01/01 12:13:25;;;;;;;38.85;14.40;;;12.80;99.90;;;;;;4973754;28;20038;-70
2022/01/01 12:15:51;;;;;;;38.25;14.35;;;13.20;99.90;;;;;;4976491;28;20042;-70
2022/01/01 12:18:17;;;;;;;42.40;14.55;;;12.80;99.90;;;;;;4971623;28;20081;-70
2022/01/01 12:20:46;;;;;;;36.60;14.02;;;12.80;99.90;;;;;;4975383;28;20035;-70
2022/01/01 12:23:12;;;;;;;35.30;14.32;;;12.80;99.90;;;;;;4976792;28;20030;-72
2022/01/01 12:25:38;;;;;;;35.85;14.25;;;12.90;99.90;;;;;;4958554;28;20679;-69
2022/01/01 12:28:03;;;;;;;33.50;14.30;;;12.90;99.90;;;;;;4972042;28;20031;-73